Millersview, Texas
Current Conditions -  °F | °C
As of 1:15 PM on Friday 21 Nov 2014 (Local Time) from KBBD Reporting Station
Broken Clouds Broken Clouds  
Wind Chill: 73°   Ceiling: 3800
Heat Index: 73°   Visibility: 10mi
Dew Point: 54°   Wind: 14mph
Humidity: 50%   Direction: 160°SSE
Pressure: 30.01"   Gusts: NA
Location:  31.41°N, 99.76°W
Report Text: KBBD 211915Z AUTO 16012KT 10SM BKN038 23/12 A3001 RMK
Loading
Personal Weather Stations






























Interactive Weather Map New forecast layout! Learn more

10-Day Weather Forecast

Advertisements
Track Severe Weather on mobile